createdAt,value
2022-10-05T00:01:23.845Z,101237.94
2022-10-05T00:03:52.810Z,101236.56
2022-10-05T00:06:20.481Z,101229.16
2022-10-05T00:08:49.662Z,101233.75
2022-10-05T00:11:18.693Z,101221.06
2022-10-05T00:13:47.049Z,101220.75
2022-10-05T00:16:17.515Z,101227.31
2022-10-05T00:18:47.919Z,101227.34
2022-10-05T00:21:23.765Z,101227.03
2022-10-05T00:23:53.387Z,101225.06
2022-10-05T00:26:22.921Z,101226.50
2022-10-05T00:28:50.885Z,101223.44
2022-10-05T00:31:21.166Z,101221.25
2022-10-05T00:33:49.540Z,101218.81
2022-10-05T00:36:17.318Z,101226.16
2022-10-05T00:38:45.319Z,101227.06
2022-10-05T00:41:18.712Z,101229.09
2022-10-05T00:44:13.554Z,101229.75
2022-10-05T00:46:51.185Z,101219.66
2022-10-05T00:49:27.105Z,101223.72
2022-10-05T00:52:04.526Z,101231.34
2022-10-05T00:54:35.588Z,101220.03
2022-10-05T00:57:18.672Z,101219.84
2022-10-05T00:59:52.604Z,101212.19
2022-10-05T01:02:26.861Z,101206.59
2022-10-05T01:05:00.022Z,101196.97
2022-10-05T01:07:35.176Z,101208.75
2022-10-05T01:10:11.406Z,101207.59
2022-10-05T01:12:48.174Z,101205.75
2022-10-05T01:15:18.008Z,101201.53
2022-10-05T01:17:50.960Z,101198.34
2022-10-05T01:20:25.504Z,101187.31
2022-10-05T01:23:05.304Z,101189.06
2022-10-05T01:25:39.324Z,101180.31
2022-10-05T01:28:11.412Z,101188.06
2022-10-05T01:30:44.421Z,101184.75
2022-10-05T01:33:19.210Z,101172.56
2022-10-05T01:35:53.585Z,101170.94
2022-10-05T01:38:29.387Z,101167.06
2022-10-05T01:41:05.005Z,101169.28
2022-10-05T01:43:40.500Z,101163.63
2022-10-05T01:46:19.478Z,101160.72
2022-10-05T01:48:57.872Z,101165.88
2022-10-05T01:51:31.995Z,101157.94
2022-10-05T01:54:05.841Z,101157.13
2022-10-05T01:56:40.735Z,101151.28
2022-10-05T01:59:18.813Z,101151.03
2022-10-05T02:01:50.982Z,101135.47
2022-10-05T02:04:49.699Z,101127.47
2022-10-05T02:07:14.974Z,101132.56
2022-10-05T02:09:47.443Z,101134.53
2022-10-05T02:12:18.532Z,101130.91
2022-10-05T02:14:50.205Z,101129.78
2022-10-05T02:17:19.237Z,101138.03
2022-10-05T02:19:49.801Z,101138.69
2022-10-05T02:22:19.156Z,101131.06
2022-10-05T02:24:57.320Z,101139.84
2022-10-05T02:27:28.149Z,101138.28
2022-10-05T02:30:00.695Z,101140.84
2022-10-05T02:32:35.316Z,101137.97
2022-10-05T02:35:07.933Z,101134.69
2022-10-05T02:37:43.540Z,101133.31
2022-10-05T02:40:19.906Z,101135.31
2022-10-05T02:42:53.203Z,101126.00
2022-10-05T02:45:26.461Z,101137.84
2022-10-05T02:48:00.649Z,101136.06
2022-10-05T02:50:34.315Z,101131.94
2022-10-05T02:53:14.825Z,101135.13
2022-10-05T02:55:48.084Z,101135.13
2022-10-05T02:58:17.805Z,101134.06
2022-10-05T03:00:49.389Z,101123.16
2022-10-05T03:03:25.278Z,101118.81
2022-10-05T03:05:56.258Z,101117.13
2022-10-05T03:08:28.558Z,101123.50
2022-10-05T03:11:01.068Z,101117.41
2022-10-05T03:13:35.501Z,101107.66
2022-10-05T03:16:31.226Z,101110.09
2022-10-05T03:19:04.152Z,101100.19
2022-10-05T03:21:40.741Z,101096.88
2022-10-05T03:24:21.000Z,101093.84
2022-10-05T03:26:53.409Z,101088.44
2022-10-05T03:29:28.137Z,101072.66
2022-10-05T03:32:03.507Z,101074.09
2022-10-05T03:34:37.132Z,101081.00
2022-10-05T03:37:10.762Z,101082.84
2022-10-05T03:39:42.428Z,101081.34
2022-10-05T03:42:19.720Z,101078.75
2022-10-05T03:44:50.578Z,101077.94
2022-10-05T03:47:30.953Z,101073.94
2022-10-05T03:50:07.427Z,101071.59
2022-10-05T03:52:38.087Z,101061.63
2022-10-05T03:55:13.679Z,101065.78
2022-10-05T03:57:42.175Z,101063.72
2022-10-05T04:00:15.097Z,101065.91
2022-10-05T04:02:46.797Z,101064.22
2022-10-05T04:05:17.027Z,101063.53
2022-10-05T04:07:47.357Z,101073.41
2022-10-05T04:10:18.881Z,101069.91
2022-10-05T04:12:50.279Z,101062.09
2022-10-05T04:15:22.622Z,101055.50
2022-10-05T04:17:53.097Z,101052.59
2022-10-05T04:20:23.730Z,101049.53
2022-10-05T04:22:55.384Z,101049.72
2022-10-05T04:25:25.913Z,101051.50
2022-10-05T04:27:56.223Z,101054.84
2022-10-05T04:30:23.879Z,101057.78
2022-10-05T04:32:54.455Z,101060.88
2022-10-05T04:35:39.101Z,101062.66
2022-10-05T04:38:17.972Z,101062.50
2022-10-05T04:40:54.020Z,101065.88
2022-10-05T04:43:29.524Z,101068.78
2022-10-05T04:46:11.510Z,101058.00
2022-10-05T04:49:05.976Z,101061.13
2022-10-05T04:51:38.665Z,101070.16
2022-10-05T04:54:15.270Z,101065.78
2022-10-05T04:56:47.326Z,101056.56
2022-10-05T04:59:29.498Z,101044.94
2022-10-05T05:02:06.613Z,101046.44
2022-10-05T05:04:52.833Z,101042.16
2022-10-05T05:07:32.080Z,101047.59
2022-10-05T05:10:18.700Z,101051.38
2022-10-05T05:12:52.149Z,101052.91
2022-10-05T05:15:27.501Z,101046.47
2022-10-05T05:18:07.783Z,101054.34
2022-10-05T05:20:45.505Z,101049.22
2022-10-05T05:23:19.043Z,101057.88
2022-10-05T05:25:51.965Z,101055.88
2022-10-05T05:28:25.984Z,101048.09
2022-10-05T05:31:01.026Z,101055.81
2022-10-05T05:33:34.928Z,101055.22
2022-10-05T05:36:28.294Z,101059.00
2022-10-05T05:39:05.913Z,101056.72
2022-10-05T05:41:38.533Z,101055.50
2022-10-05T05:44:16.849Z,101050.47
2022-10-05T05:47:04.910Z,101043.81
2022-10-05T05:49:51.622Z,101042.88
2022-10-05T05:52:24.969Z,101044.81
2022-10-05T05:54:57.112Z,101050.34
2022-10-05T05:57:29.000Z,101053.00
2022-10-05T06:00:07.272Z,101043.53
2022-10-05T06:02:40.561Z,101053.41
2022-10-05T06:05:25.011Z,101041.25
2022-10-05T06:07:54.928Z,101047.41
2022-10-05T06:10:28.747Z,101041.25
2022-10-05T06:13:01.602Z,101051.03
2022-10-05T06:15:34.433Z,101044.59
2022-10-05T06:18:04.345Z,101054.06
2022-10-05T06:20:37.060Z,101051.09
2022-10-05T06:23:15.029Z,101052.47
2022-10-05T06:25:50.075Z,101051.47
2022-10-05T06:28:17.775Z,101050.94
2022-10-05T06:30:51.332Z,101045.75
2022-10-05T06:33:26.305Z,101041.56
2022-10-05T06:36:04.058Z,101045.75
2022-10-05T06:38:48.045Z,101047.94
2022-10-05T06:41:20.718Z,101044.19
2022-10-05T06:43:53.473Z,101038.91
2022-10-05T06:46:23.828Z,101033.22
2022-10-05T06:49:04.857Z,101028.59
2022-10-05T06:51:37.140Z,101035.22
2022-10-05T06:54:10.961Z,101030.56
2022-10-05T06:56:42.713Z,101029.81
2022-10-05T06:59:15.177Z,101025.69
2022-10-05T07:01:51.289Z,101027.00
2022-10-05T07:04:37.198Z,101017.44
2022-10-05T07:07:11.335Z,101019.94
2022-10-05T07:09:47.759Z,101020.03
2022-10-05T07:12:43.008Z,101026.47
2022-10-05T07:15:30.529Z,101025.16
2022-10-05T07:18:13.088Z,101027.38
2022-10-05T07:20:49.201Z,101032.19
2022-10-05T07:23:28.558Z,101026.31
2022-10-05T07:26:03.796Z,101035.09
2022-10-05T07:28:36.335Z,101037.75
2022-10-05T07:31:07.644Z,101033.44
2022-10-05T07:33:39.704Z,101031.84
2022-10-05T07:36:31.028Z,101026.97
2022-10-05T07:39:09.208Z,101029.84
2022-10-05T07:41:43.523Z,101033.00
2022-10-05T07:44:16.037Z,101027.38
2022-10-05T07:46:52.734Z,101034.59
2022-10-05T07:49:26.528Z,101029.28
2022-10-05T07:51:57.114Z,101023.63
2022-10-05T07:54:26.618Z,101026.34
2022-10-05T07:57:00.171Z,101025.78
2022-10-05T07:59:32.853Z,101019.56
2022-10-05T08:02:06.253Z,101037.72
2022-10-05T08:04:41.763Z,101041.69
2022-10-05T08:07:14.472Z,101031.75
2022-10-05T08:09:45.342Z,101040.94
2022-10-05T08:12:33.723Z,101034.72
2022-10-05T08:15:05.041Z,101026.69
2022-10-05T08:17:45.321Z,101039.63
2022-10-05T08:20:41.217Z,101025.91
2022-10-05T08:23:18.729Z,101034.03
2022-10-05T08:25:51.747Z,101033.00
2022-10-05T08:28:24.183Z,101029.47
2022-10-05T08:30:57.078Z,101034.41
2022-10-05T08:33:26.260Z,101035.16
2022-10-05T08:36:03.416Z,101038.34
2022-10-05T08:38:33.162Z,101028.88
2022-10-05T08:41:25.461Z,101037.84
2022-10-05T08:44:27.121Z,101033.00
2022-10-05T08:47:16.770Z,101032.78
2022-10-05T08:50:12.367Z,101021.72
2022-10-05T08:52:55.432Z,101029.03
2022-10-05T08:55:38.161Z,101033.63
2022-10-05T08:58:28.939Z,101030.19
2022-10-05T09:01:04.575Z,101023.91
2022-10-05T09:03:48.298Z,101022.94
2022-10-05T09:06:23.493Z,101032.41
2022-10-05T09:09:10.997Z,101032.91
2022-10-05T09:11:40.542Z,101031.56
2022-10-05T09:14:21.799Z,101032.94
2022-10-05T09:16:57.773Z,101026.78
2022-10-05T09:19:36.805Z,101031.69
2022-10-05T09:22:15.560Z,101027.06
2022-10-05T09:24:54.000Z,101023.34
2022-10-05T09:27:32.024Z,101033.66
2022-10-05T09:30:30.070Z,101025.41
2022-10-05T09:33:25.887Z,101032.00
2022-10-05T09:36:17.525Z,101018.22
2022-10-05T09:39:25.824Z,101025.78
2022-10-05T09:42:08.559Z,101018.50
2022-10-05T09:44:59.241Z,101014.44
2022-10-05T09:47:48.221Z,101030.66
2022-10-05T09:50:46.841Z,101022.28
2022-10-05T09:53:38.313Z,101020.47
2022-10-05T09:56:21.125Z,101004.47
2022-10-05T09:59:18.842Z,101003.38
2022-10-05T10:02:09.814Z,101004.75
2022-10-05T10:05:05.425Z,100996.09
2022-10-05T10:07:51.492Z,100996.09
2022-10-05T10:10:37.528Z,100996.09
2022-10-05T10:13:28.412Z,100989.31
2022-10-05T10:16:34.148Z,100991.19
2022-10-05T10:19:12.462Z,100987.97
2022-10-05T10:22:07.236Z,100990.66
2022-10-05T10:25:02.525Z,100986.84
2022-10-05T10:27:40.505Z,100980.91
2022-10-05T10:30:39.084Z,100984.16
2022-10-05T10:33:21.891Z,100984.13
2022-10-05T10:35:55.781Z,100997.19
2022-10-05T10:38:41.297Z,100986.31
2022-10-05T10:41:56.752Z,100992.84
2022-10-05T10:44:52.264Z,100985.78
2022-10-05T10:47:49.652Z,100983.88
2022-10-05T10:50:33.024Z,100987.16
2022-10-05T10:53:09.877Z,100980.66
2022-10-05T10:55:48.748Z,100979.56
2022-10-05T10:58:39.954Z,100977.41
2022-10-05T11:01:28.230Z,100975.25
2022-10-05T11:04:15.804Z,100977.66
2022-10-05T11:06:54.899Z,100972.81
2022-10-05T11:09:41.262Z,100974.94
2022-10-05T11:12:35.554Z,100972.81
2022-10-05T11:15:25.629Z,100964.94
2022-10-05T11:18:09.857Z,100958.97
2022-10-05T11:20:58.647Z,100947.84
2022-10-05T11:23:39.139Z,100945.94
2022-10-05T11:26:22.241Z,100955.44
2022-10-05T11:29:13.577Z,100957.88
2022-10-05T11:32:10.072Z,100952.72
2022-10-05T11:34:53.001Z,100947.31
2022-10-05T11:37:42.822Z,100945.41
2022-10-05T11:40:34.231Z,100950.03
2022-10-05T11:43:32.782Z,100936.44
2022-10-05T11:46:09.715Z,100943.22
2022-10-05T11:48:46.499Z,100935.09
2022-10-05T11:51:38.068Z,100930.50
2022-10-05T11:54:22.498Z,100929.41
2022-10-05T11:56:54.794Z,100925.06
2022-10-05T11:59:29.868Z,100926.66
2022-10-05T12:02:04.199Z,100942.09
2022-10-05T12:04:37.843Z,100912.81
2022-10-05T12:07:16.176Z,100914.72
2022-10-05T12:10:17.014Z,100912.25
2022-10-05T12:12:57.782Z,100913.63
2022-10-05T12:15:28.159Z,100903.88
2022-10-05T12:17:58.857Z,100913.31
2022-10-05T12:20:29.704Z,100896.53
2022-10-05T12:23:00.981Z,100890.25
2022-10-05T12:25:32.585Z,100886.47
2022-10-05T12:28:04.854Z,100889.19
2022-10-05T12:30:50.237Z,100887.44
2022-10-05T12:33:21.041Z,100882.84
2022-10-05T12:35:52.783Z,100901.03
2022-10-05T12:38:28.276Z,100880.16
2022-10-05T12:41:04.160Z,100882.00
2022-10-05T12:43:37.878Z,100887.97
2022-10-05T12:46:10.482Z,100879.91
2022-10-05T12:48:49.159Z,100882.31
2022-10-05T12:51:21.230Z,100876.34
2022-10-05T12:53:57.100Z,100867.88
2022-10-05T12:56:34.430Z,100870.41
2022-10-05T12:59:07.074Z,100872.13
2022-10-05T13:01:41.013Z,100868.66
2022-10-05T13:04:21.072Z,100874.84
2022-10-05T13:07:05.901Z,100868.09
2022-10-05T13:09:41.333Z,100872.97
2022-10-05T13:12:16.060Z,100873.84
2022-10-05T13:14:55.308Z,100858.09
2022-10-05T13:17:26.737Z,100848.28
2022-10-05T13:19:58.537Z,100853.47
2022-10-05T13:22:30.841Z,100841.41
2022-10-05T13:25:10.053Z,100848.94
2022-10-05T13:27:43.341Z,100836.25
2022-10-05T13:30:14.858Z,100837.63
2022-10-05T13:32:47.832Z,100825.97
2022-10-05T13:35:40.145Z,100829.69
2022-10-05T13:38:19.084Z,100827.50
2022-10-05T13:40:53.595Z,100831.88
2022-10-05T13:43:29.221Z,100815.66
2022-10-05T13:46:02.712Z,100825.34
2022-10-05T13:48:52.180Z,100813.94
2022-10-05T13:51:22.551Z,100810.66
2022-10-05T13:53:55.934Z,100807.13
2022-10-05T13:56:30.955Z,100801.38
2022-10-05T13:59:07.392Z,100796.56
2022-10-05T14:01:42.284Z,100797.63
2022-10-05T14:04:17.961Z,100809.34
2022-10-05T14:06:45.929Z,100800.34
2022-10-05T14:09:15.740Z,100801.47
2022-10-05T14:11:51.357Z,100798.75
2022-10-05T14:14:26.394Z,100781.56
2022-10-05T14:16:55.950Z,100789.88
2022-10-05T14:19:26.751Z,100793.50
2022-10-05T14:22:00.516Z,100783.19
2022-10-05T14:24:43.970Z,100779.69
2022-10-05T14:27:21.899Z,100788.63
2022-10-05T14:29:56.656Z,100785.09
2022-10-05T14:32:26.919Z,100788.66
2022-10-05T14:35:06.037Z,100785.38
2022-10-05T14:37:44.857Z,100794.63
2022-10-05T14:40:28.514Z,100811.47
2022-10-05T14:42:58.529Z,100785.38
2022-10-05T14:45:29.668Z,100798.75
2022-10-05T14:48:10.071Z,100800.34
2022-10-05T14:50:52.153Z,100790.88
2022-10-05T14:53:21.109Z,100804.69
2022-10-05T14:56:17.435Z,100801.09
2022-10-05T14:58:56.365Z,100810.03
2022-10-05T15:01:27.343Z,100800.59
2022-10-05T15:04:07.709Z,100805.75
2022-10-05T15:06:38.546Z,100795.59
2022-10-05T15:09:23.584Z,100796.13
2022-10-05T15:11:53.372Z,100792.97
2022-10-05T15:14:25.219Z,100799.22
2022-10-05T15:16:54.304Z,100794.84
2022-10-05T15:19:25.386Z,100806.50
2022-10-05T15:22:20.159Z,100803.28
2022-10-05T15:24:58.165Z,100798.66
2022-10-05T15:27:34.208Z,100800.56
2022-10-05T15:30:09.101Z,100803.59
2022-10-05T15:32:44.449Z,100796.81
2022-10-05T15:35:38.232Z,100805.19
2022-10-05T15:38:17.667Z,100797.00
2022-10-05T15:40:49.349Z,100775.28
2022-10-05T15:43:20.073Z,100787.47
2022-10-05T15:45:56.411Z,100780.66
2022-10-05T15:48:29.009Z,100785.00
2022-10-05T15:51:01.929Z,100787.66
2022-10-05T15:53:37.990Z,100773.06
2022-10-05T15:56:07.392Z,100783.66
2022-10-05T15:58:47.573Z,100783.66
2022-10-05T16:01:19.977Z,100791.56
2022-10-05T16:03:52.204Z,100782.59
2022-10-05T16:06:48.813Z,100786.69
2022-10-05T16:09:27.425Z,100778.53
2022-10-05T16:12:02.213Z,100768.75
2022-10-05T16:14:38.771Z,100757.88
2022-10-05T16:17:20.488Z,100763.34
2022-10-05T16:19:58.712Z,100766.34
2022-10-05T16:22:31.924Z,100766.94
2022-10-05T16:25:08.683Z,100764.69
2022-10-05T16:27:46.168Z,100775.00
2022-10-05T16:30:18.024Z,100770.09
2022-10-05T16:32:54.302Z,100769.28
2022-10-05T16:35:30.057Z,100775.28
2022-10-05T16:38:07.964Z,100775.78
2022-10-05T16:40:44.044Z,100773.25
2022-10-05T16:43:21.547Z,100766.38
2022-10-05T16:45:59.426Z,100765.94
2022-10-05T16:48:32.065Z,100766.53
2022-10-05T16:51:13.498Z,100764.66
2022-10-05T16:53:43.432Z,100760.03
2022-10-05T16:56:14.152Z,100769.28
2022-10-05T16:58:54.492Z,100762.81
2022-10-05T17:01:31.696Z,100772.28
2022-10-05T17:04:13.152Z,100772.25
2022-10-05T17:06:50.815Z,100772.63
2022-10-05T17:09:29.992Z,100783.81
2022-10-05T17:12:11.384Z,100774.75
2022-10-05T17:14:43.209Z,100788.28
2022-10-05T17:17:27.676Z,100783.09
2022-10-05T17:20:06.522Z,100799.22
2022-10-05T17:22:39.706Z,100797.41
2022-10-05T17:25:14.279Z,100800.25
2022-10-05T17:27:52.152Z,100814.09
2022-10-05T17:30:24.206Z,100811.41
2022-10-05T17:32:57.191Z,100813.63
2022-10-05T17:36:17.997Z,100807.88
2022-10-05T17:38:48.256Z,100817.47
2022-10-05T17:41:21.677Z,100823.41
2022-10-05T17:44:32.316Z,100829.38
2022-10-05T17:47:00.789Z,100831.53
2022-10-05T17:50:14.939Z,100834.06
2022-10-05T17:53:03.878Z,100832.94
2022-10-05T17:55:44.010Z,100840.13
2022-10-05T17:59:00.496Z,100837.19
2022-10-05T18:01:30.163Z,100842.91
2022-10-05T18:04:30.364Z,100835.38
2022-10-05T18:07:04.486Z,100839.53
2022-10-05T18:09:52.349Z,100845.69
2022-10-05T18:12:47.901Z,100840.22
2022-10-05T18:15:48.484Z,100840.25
2022-10-05T18:18:58.490Z,100845.34
2022-10-05T18:21:35.640Z,100835.88
2022-10-05T18:24:17.220Z,100835.56
2022-10-05T18:26:54.485Z,100831.63
2022-10-05T18:29:53.381Z,100827.59
2022-10-05T18:32:25.317Z,100822.22
2022-10-05T18:35:01.992Z,100824.06
2022-10-05T18:37:40.003Z,100819.22
2022-10-05T18:40:21.820Z,100819.25
2022-10-05T18:42:54.661Z,100818.63
2022-10-05T18:45:25.109Z,100817.03
2022-10-05T18:48:04.357Z,100809.91
2022-10-05T18:50:35.162Z,100810.44
2022-10-05T18:53:15.560Z,100805.31
2022-10-05T18:55:46.266Z,100808.28
2022-10-05T18:58:19.007Z,100806.78
2022-10-05T19:01:00.037Z,100801.91
2022-10-05T19:03:30.565Z,100794.66
2022-10-05T19:06:12.865Z,100799.56
2022-10-05T19:08:49.548Z,100799.03
2022-10-05T19:11:22.936Z,100797.13
2022-10-05T19:13:59.576Z,100798.16
2022-10-05T19:16:40.094Z,100786.50
2022-10-05T19:19:23.994Z,100797.34
2022-10-05T19:21:59.536Z,100799.06
2022-10-05T19:24:40.625Z,100797.06
2022-10-05T19:27:12.899Z,100794.09
2022-10-05T19:30:07.654Z,100797.06
2022-10-05T19:32:45.840Z,100793.22
2022-10-05T19:35:21.541Z,100789.72
2022-10-05T19:37:57.148Z,100794.84
2022-10-05T19:40:29.156Z,100804.91
2022-10-05T19:43:06.638Z,100805.38
2022-10-05T19:45:39.642Z,100808.41
2022-10-05T19:48:16.065Z,100808.13
2022-10-05T19:50:54.508Z,100814.34
2022-10-05T19:53:26.172Z,100810.28
2022-10-05T19:55:55.312Z,100814.34
2022-10-05T19:58:25.796Z,100810.84
2022-10-05T20:00:57.661Z,100815.91
2022-10-05T20:03:29.038Z,100807.56
2022-10-05T20:05:58.458Z,100814.56
2022-10-05T20:08:27.629Z,100815.34
2022-10-05T20:11:10.705Z,100814.91
2022-10-05T20:13:39.879Z,100821.09
2022-10-05T20:16:37.745Z,100826.22
2022-10-05T20:19:23.627Z,100830.84
2022-10-05T20:21:52.720Z,100831.16
2022-10-05T20:24:22.227Z,100829.50
2022-10-05T20:27:02.924Z,100829.78
2022-10-05T20:29:31.740Z,100834.91
2022-10-05T20:32:03.463Z,100828.38
2022-10-05T20:34:32.855Z,100834.91
2022-10-05T20:37:00.485Z,100831.88
2022-10-05T20:39:28.139Z,100828.13
2022-10-05T20:41:55.790Z,100839.78
2022-10-05T20:44:23.425Z,100829.72
2022-10-05T20:46:52.716Z,100838.66
2022-10-05T20:49:22.704Z,100849.28
2022-10-05T20:51:50.413Z,100847.63
2022-10-05T20:54:19.197Z,100840.34
2022-10-05T20:56:47.055Z,100840.84
2022-10-05T20:59:15.135Z,100823.72
2022-10-05T21:01:47.809Z,100836.53
2022-10-05T21:04:16.523Z,100847.09
2022-10-05T21:06:45.638Z,100854.94
2022-10-05T21:09:14.709Z,100851.69
2022-10-05T21:11:42.483Z,100849.25
2022-10-05T21:14:10.697Z,100856.31
2022-10-05T21:16:40.686Z,100870.97
2022-10-05T21:19:09.726Z,100851.72
2022-10-05T21:21:37.699Z,100858.22
2022-10-05T21:24:07.389Z,100850.63
2022-10-05T21:26:36.955Z,100859.56
2022-10-05T21:29:12.115Z,100846.81
2022-10-05T21:31:40.525Z,100855.50
2022-10-05T21:34:08.565Z,100860.94
2022-10-05T21:36:36.385Z,100871.81
2022-10-05T21:39:04.996Z,100877.44
2022-10-05T21:41:33.989Z,100880.47
2022-10-05T21:44:03.466Z,100886.19
2022-10-05T21:46:31.514Z,100882.91
2022-10-05T21:48:59.156Z,100891.06
2022-10-05T21:51:27.555Z,100889.19
2022-10-05T21:53:58.061Z,100884.03
2022-10-05T21:56:29.335Z,100891.53
2022-10-05T21:58:58.798Z,100895.97
2022-10-05T22:01:27.093Z,100906.25
2022-10-05T22:03:54.996Z,100902.47
2022-10-05T22:06:22.643Z,100908.69
2022-10-05T22:08:50.303Z,100904.38
2022-10-05T22:11:18.581Z,100910.03
2022-10-05T22:13:47.783Z,100900.75
2022-10-05T22:16:18.182Z,100908.13
2022-10-05T22:18:46.323Z,100909.72
2022-10-05T22:21:15.062Z,100910.22
2022-10-05T22:23:44.407Z,100916.56
2022-10-05T22:26:14.536Z,100923.09
2022-10-05T22:28:42.561Z,100921.94
2022-10-05T22:31:11.517Z,100924.38
2022-10-05T22:33:41.078Z,100919.47
2022-10-05T22:36:09.807Z,100927.09
2022-10-05T22:38:37.569Z,100937.16
2022-10-05T22:41:05.337Z,100927.91
2022-10-05T22:43:33.333Z,100939.03
2022-10-05T22:46:02.973Z,100936.81
2022-10-05T22:48:30.972Z,100931.94
2022-10-05T22:51:00.176Z,100941.19
2022-10-05T22:53:29.925Z,100941.44
2022-10-05T22:55:57.799Z,100941.97
2022-10-05T22:58:26.235Z,100942.25
2022-10-05T23:00:58.457Z,100942.75
2022-10-05T23:03:27.059Z,100946.22
2022-10-05T23:05:57.651Z,100936.22
2022-10-05T23:08:27.578Z,100939.78
2022-10-05T23:10:55.451Z,100952.81
2022-10-05T23:13:23.304Z,100949.28
2022-10-05T23:15:51.022Z,100952.53
2022-10-05T23:18:18.683Z,100960.94
2022-10-05T23:20:46.348Z,100956.59
2022-10-05T23:23:14.013Z,100957.38
2022-10-05T23:25:43.013Z,100963.91
2022-10-05T23:28:10.695Z,100959.84
2022-10-05T23:30:38.355Z,100969.09
2022-10-05T23:33:06.006Z,100976.97
2022-10-05T23:35:33.651Z,100968.47
2022-10-05T23:38:03.065Z,100977.94
2022-10-05T23:40:30.824Z,100988.88
2022-10-05T23:43:00.748Z,100989.91
2022-10-05T23:45:28.447Z,100988.06
2022-10-05T23:47:56.097Z,101029.63
2022-10-05T23:50:24.992Z,101035.09
2022-10-05T23:52:52.632Z,101059.63
2022-10-05T23:55:20.310Z,101082.66
2022-10-05T23:57:47.971Z,101088.34
